sensor_id;sensor_type;location;lat;lon;timestamp;temperature;humidity
17728;DHT22;8984;49.268;12.302;2022-10-16T00:00:37;17.60;99.90
17728;DHT22;8984;49.268;12.302;2022-10-16T00:03:05;17.60;99.90
17728;DHT22;8984;49.268;12.302;2022-10-16T00:05:33;17.60;99.90
17728;DHT22;8984;49.268;12.302;2022-10-16T00:08:04;17.60;99.90
17728;DHT22;8984;49.268;12.302;2022-10-16T00:10:31;17.50;99.90
17728;DHT22;8984;49.268;12.302;2022-10-16T00:12:59;17.40;99.90
17728;DHT22;8984;49.268;12.302;2022-10-16T00:15:26;17.30;99.90
17728;DHT22;8984;49.268;12.302;2022-10-16T00:17:53;17.30;99.90
17728;DHT22;8984;49.268;12.302;2022-10-16T00:20:20;17.30;99.90
17728;DHT22;8984;49.268;12.302;2022-10-16T00:22:47;17.30;99.90
17728;DHT22;8984;49.268;12.302;2022-10-16T00:25:13;17.30;99.90
17728;DHT22;8984;49.268;12.302;2022-10-16T00:27:41;17.30;99.90
17728;DHT22;8984;49.268;12.302;2022-10-16T00:30:10;17.30;99.90
17728;DHT22;8984;49.268;12.302;2022-10-16T00:32:37;17.30;99.90
17728;DHT22;8984;49.268;12.302;2022-10-16T00:35:04;17.30;99.90
17728;DHT22;8984;49.268;12.302;2022-10-16T00:37:32;17.30;99.90
17728;DHT22;8984;49.268;12.302;2022-10-16T00:39:58;17.20;99.90
17728;DHT22;8984;49.268;12.302;2022-10-16T00:42:25;17.20;99.90
17728;DHT22;8984;49.268;12.302;2022-10-16T00:44:54;17.20;99.90
17728;DHT22;8984;49.268;12.302;2022-10-16T00:47:26;17.20;99.90
17728;DHT22;8984;49.268;12.302;2022-10-16T00:49:58;17.20;99.90
17728;DHT22;8984;49.268;12.302;2022-10-16T00:52:25;17.20;99.90
17728;DHT22;8984;49.268;12.302;2022-10-16T00:54:52;17.20;99.90
17728;DHT22;8984;49.268;12.302;2022-10-16T00:57:20;17.20;99.90
17728;DHT22;8984;49.268;12.302;2022-10-16T00:59:47;17.20;99.90
17728;DHT22;8984;49.268;12.302;2022-10-16T01:02:16;17.20;99.90
17728;DHT22;8984;49.268;12.302;2022-10-16T01:04:47;17.10;99.90
17728;DHT22;8984;49.268;12.302;2022-10-16T01:07:24;17.10;99.90
17728;DHT22;8984;49.268;12.302;2022-10-16T01:10:02;17.10;99.90
17728;DHT22;8984;49.268;12.302;2022-10-16T01:12:39;17.10;99.90
17728;DHT22;8984;49.268;12.302;2022-10-16T01:15:11;17.10;99.90
17728;DHT22;8984;49.268;12.302;2022-10-16T01:17:45;17.10;99.90
17728;DHT22;8984;49.268;12.302;2022-10-16T01:20:22;17.10;99.90
17728;DHT22;8984;49.268;12.302;2022-10-16T01:23:02;17.10;99.90
17728;DHT22;8984;49.268;12.302;2022-10-16T01:25:44;17.10;99.90
17728;DHT22;8984;49.268;12.302;2022-10-16T01:28:18;17.10;99.90
17728;DHT22;8984;49.268;12.302;2022-10-16T01:30:45;17.10;99.90
17728;DHT22;8984;49.268;12.302;2022-10-16T01:33:17;17.10;99.90
17728;DHT22;8984;49.268;12.302;2022-10-16T01:35:48;17.20;99.90
17728;DHT22;8984;49.268;12.302;2022-10-16T01:38:20;17.10;99.90
17728;DHT22;8984;49.268;12.302;2022-10-16T01:40:52;17.20;99.90
17728;DHT22;8984;49.268;12.302;2022-10-16T01:43:26;17.20;99.90
17728;DHT22;8984;49.268;12.302;2022-10-16T01:45:55;17.20;99.90
17728;DHT22;8984;49.268;12.302;2022-10-16T01:48:22;17.20;99.90
17728;DHT22;8984;49.268;12.302;2022-10-16T01:50:53;17.20;99.90
17728;DHT22;8984;49.268;12.302;2022-10-16T01:53:22;17.20;99.90
17728;DHT22;8984;49.268;12.302;2022-10-16T01:55:50;17.20;99.90
17728;DHT22;8984;49.268;12.302;2022-10-16T01:58:18;17.20;99.90
17728;DHT22;8984;49.268;12.302;2022-10-16T02:00:47;17.20;99.90
17728;DHT22;8984;49.268;12.302;2022-10-16T02:03:17;17.20;99.90
17728;DHT22;8984;49.268;12.302;2022-10-16T02:05:47;17.20;99.90
17728;DHT22;8984;49.268;12.302;2022-10-16T02:08:15;17.20;99.90
17728;DHT22;8984;49.268;12.302;2022-10-16T02:10:42;17.20;99.90
17728;DHT22;8984;49.268;12.302;2022-10-16T02:13:11;17.10;99.90
17728;DHT22;8984;49.268;12.302;2022-10-16T02:15:39;17.00;99.90
17728;DHT22;8984;49.268;12.302;2022-10-16T02:18:08;17.00;99.90
17728;DHT22;8984;49.268;12.302;2022-10-16T02:20:40;17.10;99.90
17728;DHT22;8984;49.268;12.302;2022-10-16T02:23:13;17.10;99.90
17728;DHT22;8984;49.268;12.302;2022-10-16T02:25:44;17.10;99.90
17728;DHT22;8984;49.268;12.302;2022-10-16T02:28:16;17.10;99.90
17728;DHT22;8984;49.268;12.302;2022-10-16T02:30:46;17.10;99.90
17728;DHT22;8984;49.268;12.302;2022-10-16T02:33:16;17.10;99.90
17728;DHT22;8984;49.268;12.302;2022-10-16T02:35:45;17.10;99.90
17728;DHT22;8984;49.268;12.302;2022-10-16T02:38:14;17.10;99.90
17728;DHT22;8984;49.268;12.302;2022-10-16T02:40:42;17.10;99.90
17728;DHT22;8984;49.268;12.302;2022-10-16T02:43:09;17.10;99.90
17728;DHT22;8984;49.268;12.302;2022-10-16T02:45:36;17.10;99.90
17728;DHT22;8984;49.268;12.302;2022-10-16T02:48:03;17.10;99.90
17728;DHT22;8984;49.268;12.302;2022-10-16T02:50:31;17.10;99.90
17728;DHT22;8984;49.268;12.302;2022-10-16T02:52:59;17.10;99.90
17728;DHT22;8984;49.268;12.302;2022-10-16T02:55:26;17.10;99.90
17728;DHT22;8984;49.268;12.302;2022-10-16T02:57:54;17.10;99.90
17728;DHT22;8984;49.268;12.302;2022-10-16T03:00:21;17.10;99.90
17728;DHT22;8984;49.268;12.302;2022-10-16T03:02:48;17.10;99.90
17728;DHT22;8984;49.268;12.302;2022-10-16T03:05:15;17.10;99.90
17728;DHT22;8984;49.268;12.302;2022-10-16T03:07:43;17.10;99.90
17728;DHT22;8984;49.268;12.302;2022-10-16T03:10:10;17.10;99.90
17728;DHT22;8984;49.268;12.302;2022-10-16T03:12:37;17.10;99.90
17728;DHT22;8984;49.268;12.302;2022-10-16T03:15:04;17.00;99.90
17728;DHT22;8984;49.268;12.302;2022-10-16T03:17:32;17.00;99.90
17728;DHT22;8984;49.268;12.302;2022-10-16T03:20:00;17.00;99.90
17728;DHT22;8984;49.268;12.302;2022-10-16T03:22:27;17.00;99.90
17728;DHT22;8984;49.268;12.302;2022-10-16T03:24:55;17.00;99.90
17728;DHT22;8984;49.268;12.302;2022-10-16T03:27:22;17.00;99.90
17728;DHT22;8984;49.268;12.302;2022-10-16T03:29:49;17.10;99.90
17728;DHT22;8984;49.268;12.302;2022-10-16T03:32:15;17.10;99.90
17728;DHT22;8984;49.268;12.302;2022-10-16T03:34:42;17.10;99.90
17728;DHT22;8984;49.268;12.302;2022-10-16T03:37:10;17.00;99.90
17728;DHT22;8984;49.268;12.302;2022-10-16T03:39:36;17.00;99.90
17728;DHT22;8984;49.268;12.302;2022-10-16T03:42:05;17.00;99.90
17728;DHT22;8984;49.268;12.302;2022-10-16T03:44:32;17.00;99.90
17728;DHT22;8984;49.268;12.302;2022-10-16T03:46:58;17.10;99.90
17728;DHT22;8984;49.268;12.302;2022-10-16T03:49:25;17.10;99.90
17728;DHT22;8984;49.268;12.302;2022-10-16T03:51:52;17.10;99.90
17728;DHT22;8984;49.268;12.302;2022-10-16T03:54:19;17.10;99.90
17728;DHT22;8984;49.268;12.302;2022-10-16T03:56:47;17.10;99.90
17728;DHT22;8984;49.268;12.302;2022-10-16T03:59:15;17.20;99.90
17728;DHT22;8984;49.268;12.302;2022-10-16T04:01:42;17.20;99.90
17728;DHT22;8984;49.268;12.302;2022-10-16T04:04:09;17.20;99.90
17728;DHT22;8984;49.268;12.302;2022-10-16T04:06:36;17.20;99.90
17728;DHT22;8984;49.268;12.302;2022-10-16T04:09:03;17.20;99.90
17728;DHT22;8984;49.268;12.302;2022-10-16T04:11:29;17.10;99.90
17728;DHT22;8984;49.268;12.302;2022-10-16T04:13:56;17.10;99.90
17728;DHT22;8984;49.268;12.302;2022-10-16T04:16:24;17.10;99.90
17728;DHT22;8984;49.268;12.302;2022-10-16T04:18:51;17.00;99.90
17728;DHT22;8984;49.268;12.302;2022-10-16T04:21:18;17.00;99.90
17728;DHT22;8984;49.268;12.302;2022-10-16T04:23:45;17.00;99.90
17728;DHT22;8984;49.268;12.302;2022-10-16T04:26:12;17.00;99.90
17728;DHT22;8984;49.268;12.302;2022-10-16T04:28:38;17.00;99.90
17728;DHT22;8984;49.268;12.302;2022-10-16T04:31:06;17.10;99.90
17728;DHT22;8984;49.268;12.302;2022-10-16T04:33:34;17.10;99.90
17728;DHT22;8984;49.268;12.302;2022-10-16T04:36:02;17.10;99.90
17728;DHT22;8984;49.268;12.302;2022-10-16T04:38:29;17.00;99.90
17728;DHT22;8984;49.268;12.302;2022-10-16T04:40:56;17.00;99.90
17728;DHT22;8984;49.268;12.302;2022-10-16T04:43:23;16.90;99.90
17728;DHT22;8984;49.268;12.302;2022-10-16T04:45:50;16.90;99.90
17728;DHT22;8984;49.268;12.302;2022-10-16T04:48:17;16.90;99.90
17728;DHT22;8984;49.268;12.302;2022-10-16T04:50:45;16.90;99.90
17728;DHT22;8984;49.268;12.302;2022-10-16T04:53:12;16.80;99.90
17728;DHT22;8984;49.268;12.302;2022-10-16T04:55:39;16.80;99.90
17728;DHT22;8984;49.268;12.302;2022-10-16T04:58:07;16.80;99.90
17728;DHT22;8984;49.268;12.302;2022-10-16T05:00:34;16.80;99.90
17728;DHT22;8984;49.268;12.302;2022-10-16T05:03:02;16.80;99.90
17728;DHT22;8984;49.268;12.302;2022-10-16T05:05:31;16.80;99.90
17728;DHT22;8984;49.268;12.302;2022-10-16T05:07:59;16.90;99.90
17728;DHT22;8984;49.268;12.302;2022-10-16T05:10:26;16.90;99.90
17728;DHT22;8984;49.268;12.302;2022-10-16T05:12:53;16.90;99.90
17728;DHT22;8984;49.268;12.302;2022-10-16T05:15:20;16.90;99.90
17728;DHT22;8984;49.268;12.302;2022-10-16T05:17:47;16.90;99.90
17728;DHT22;8984;49.268;12.302;2022-10-16T05:20:14;16.90;99.90
17728;DHT22;8984;49.268;12.302;2022-10-16T05:22:40;16.90;99.90
17728;DHT22;8984;49.268;12.302;2022-10-16T05:25:09;16.80;99.90
17728;DHT22;8984;49.268;12.302;2022-10-16T05:27:35;16.80;99.90
17728;DHT22;8984;49.268;12.302;2022-10-16T05:30:03;16.80;99.90
17728;DHT22;8984;49.268;12.302;2022-10-16T05:32:30;16.80;99.90
17728;DHT22;8984;49.268;12.302;2022-10-16T05:34:56;16.70;99.90
17728;DHT22;8984;49.268;12.302;2022-10-16T05:37:24;16.70;99.90
17728;DHT22;8984;49.268;12.302;2022-10-16T05:39:51;16.70;99.90
17728;DHT22;8984;49.268;12.302;2022-10-16T05:42:19;16.70;99.90
17728;DHT22;8984;49.268;12.302;2022-10-16T05:44:46;16.70;99.90
17728;DHT22;8984;49.268;12.302;2022-10-16T05:47:13;16.70;99.90
17728;DHT22;8984;49.268;12.302;2022-10-16T05:49:40;16.70;99.90
17728;DHT22;8984;49.268;12.302;2022-10-16T05:52:07;16.70;99.90
17728;DHT22;8984;49.268;12.302;2022-10-16T05:54:34;16.80;99.90
17728;DHT22;8984;49.268;12.302;2022-10-16T05:57:01;16.70;99.90
17728;DHT22;8984;49.268;12.302;2022-10-16T05:59:29;16.70;99.90
17728;DHT22;8984;49.268;12.302;2022-10-16T06:01:56;16.60;99.90
17728;DHT22;8984;49.268;12.302;2022-10-16T06:04:23;16.70;99.90
17728;DHT22;8984;49.268;12.302;2022-10-16T06:06:50;16.70;99.90
17728;DHT22;8984;49.268;12.302;2022-10-16T06:09:16;16.70;99.90
17728;DHT22;8984;49.268;12.302;2022-10-16T06:11:43;16.70;99.90
17728;DHT22;8984;49.268;12.302;2022-10-16T06:14:10;16.70;99.90
17728;DHT22;8984;49.268;12.302;2022-10-16T06:16:39;16.70;99.90
17728;DHT22;8984;49.268;12.302;2022-10-16T06:19:05;16.70;99.90
17728;DHT22;8984;49.268;12.302;2022-10-16T06:21:34;16.80;99.90
17728;DHT22;8984;49.268;12.302;2022-10-16T06:24:01;16.80;99.90
17728;DHT22;8984;49.268;12.302;2022-10-16T06:26:29;16.80;99.90
17728;DHT22;8984;49.268;12.302;2022-10-16T06:28:57;16.80;99.90
17728;DHT22;8984;49.268;12.302;2022-10-16T06:31:25;16.80;99.90
17728;DHT22;8984;49.268;12.302;2022-10-16T06:33:56;16.90;99.90
17728;DHT22;8984;49.268;12.302;2022-10-16T06:36:24;16.90;99.90
17728;DHT22;8984;49.268;12.302;2022-10-16T06:38:51;17.00;99.90
17728;DHT22;8984;49.268;12.302;2022-10-16T06:41:19;17.10;99.90
17728;DHT22;8984;49.268;12.302;2022-10-16T06:43:46;17.10;99.90
17728;DHT22;8984;49.268;12.302;2022-10-16T06:46:16;17.20;99.90
17728;DHT22;8984;49.268;12.302;2022-10-16T06:48:43;17.30;99.90
17728;DHT22;8984;49.268;12.302;2022-10-16T06:51:13;17.50;99.90
17728;DHT22;8984;49.268;12.302;2022-10-16T06:53:42;17.60;99.90
17728;DHT22;8984;49.268;12.302;2022-10-16T06:56:11;17.80;99.90
17728;DHT22;8984;49.268;12.302;2022-10-16T06:58:38;17.90;99.90
17728;DHT22;8984;49.268;12.302;2022-10-16T07:01:06;17.90;99.90
17728;DHT22;8984;49.268;12.302;2022-10-16T07:03:35;18.10;99.90
17728;DHT22;8984;49.268;12.302;2022-10-16T07:06:02;18.20;99.90
17728;DHT22;8984;49.268;12.302;2022-10-16T07:08:32;18.30;99.90
17728;DHT22;8984;49.268;12.302;2022-10-16T07:11:00;18.40;99.90
17728;DHT22;8984;49.268;12.302;2022-10-16T07:13:27;18.40;99.90
17728;DHT22;8984;49.268;12.302;2022-10-16T07:15:54;18.40;99.90
17728;DHT22;8984;49.268;12.302;2022-10-16T07:18:20;18.30;99.90
17728;DHT22;8984;49.268;12.302;2022-10-16T07:20:51;18.30;99.90
17728;DHT22;8984;49.268;12.302;2022-10-16T07:23:18;18.30;99.90
17728;DHT22;8984;49.268;12.302;2022-10-16T07:25:53;18.20;99.90
17728;DHT22;8984;49.268;12.302;2022-10-16T07:28:20;18.30;99.90
17728;DHT22;8984;49.268;12.302;2022-10-16T07:30:47;18.30;99.90
17728;DHT22;8984;49.268;12.302;2022-10-16T07:33:14;18.30;99.90
17728;DHT22;8984;49.268;12.302;2022-10-16T07:35:48;18.40;99.90
17728;DHT22;8984;49.268;12.302;2022-10-16T07:38:15;18.40;99.90
17728;DHT22;8984;49.268;12.302;2022-10-16T07:40:42;18.40;99.90
17728;DHT22;8984;49.268;12.302;2022-10-16T07:43:10;18.40;99.90
17728;DHT22;8984;49.268;12.302;2022-10-16T07:45:45;18.50;99.90
17728;DHT22;8984;49.268;12.302;2022-10-16T07:48:12;18.50;99.90
17728;DHT22;8984;49.268;12.302;2022-10-16T07:50:39;18.60;99.90
17728;DHT22;8984;49.268;12.302;2022-10-16T07:53:06;18.60;99.90
17728;DHT22;8984;49.268;12.302;2022-10-16T07:55:33;18.70;99.90
17728;DHT22;8984;49.268;12.302;2022-10-16T07:58:00;18.80;99.90
17728;DHT22;8984;49.268;12.302;2022-10-16T08:00:28;18.90;99.90
17728;DHT22;8984;49.268;12.302;2022-10-16T08:02:56;18.90;99.90
17728;DHT22;8984;49.268;12.302;2022-10-16T08:05:25;19.00;99.90
17728;DHT22;8984;49.268;12.302;2022-10-16T08:07:52;19.00;99.90
17728;DHT22;8984;49.268;12.302;2022-10-16T08:10:21;19.10;99.90
17728;DHT22;8984;49.268;12.302;2022-10-16T08:12:48;19.20;99.90
17728;DHT22;8984;49.268;12.302;2022-10-16T08:15:15;19.20;99.90
17728;DHT22;8984;49.268;12.302;2022-10-16T08:17:43;19.40;99.90
17728;DHT22;8984;49.268;12.302;2022-10-16T08:20:10;19.50;99.90
17728;DHT22;8984;49.268;12.302;2022-10-16T08:22:37;19.60;99.90
17728;DHT22;8984;49.268;12.302;2022-10-16T08:25:05;19.70;99.90
17728;DHT22;8984;49.268;12.302;2022-10-16T08:27:32;19.90;99.90
17728;DHT22;8984;49.268;12.302;2022-10-16T08:29:59;20.00;99.90
17728;DHT22;8984;49.268;12.302;2022-10-16T08:32:25;20.10;99.90
17728;DHT22;8984;49.268;12.302;2022-10-16T08:34:54;20.20;99.90
17728;DHT22;8984;49.268;12.302;2022-10-16T08:37:20;20.10;99.90
17728;DHT22;8984;49.268;12.302;2022-10-16T08:39:47;20.10;99.90
17728;DHT22;8984;49.268;12.302;2022-10-16T08:42:24;20.20;99.90
17728;DHT22;8984;49.268;12.302;2022-10-16T08:45:23;20.20;99.90
17728;DHT22;8984;49.268;12.302;2022-10-16T08:48:00;20.30;99.90
17728;DHT22;8984;49.268;12.302;2022-10-16T08:50:35;20.20;99.90
17728;DHT22;8984;49.268;12.302;2022-10-16T08:53:04;20.00;99.90
17728;DHT22;8984;49.268;12.302;2022-10-16T08:55:37;20.10;99.90
17728;DHT22;8984;49.268;12.302;2022-10-16T08:58:11;20.30;99.90
17728;DHT22;8984;49.268;12.302;2022-10-16T09:00:38;20.50;99.90
17728;DHT22;8984;49.268;12.302;2022-10-16T09:03:11;20.80;99.90
17728;DHT22;8984;49.268;12.302;2022-10-16T09:06:01;21.00;99.90
17728;DHT22;8984;49.268;12.302;2022-10-16T09:08:40;21.10;99.90
17728;DHT22;8984;49.268;12.302;2022-10-16T09:11:14;21.20;99.90
17728;DHT22;8984;49.268;12.302;2022-10-16T09:13:47;21.20;99.90
17728;DHT22;8984;49.268;12.302;2022-10-16T09:16:19;21.20;99.90
17728;DHT22;8984;49.268;12.302;2022-10-16T09:18:52;21.30;99.90
17728;DHT22;8984;49.268;12.302;2022-10-16T09:21:24;21.40;99.90
17728;DHT22;8984;49.268;12.302;2022-10-16T09:23:52;21.60;99.90
17728;DHT22;8984;49.268;12.302;2022-10-16T09:26:20;21.80;99.90
17728;DHT22;8984;49.268;12.302;2022-10-16T09:28:47;22.00;99.90
17728;DHT22;8984;49.268;12.302;2022-10-16T09:31:17;22.30;99.90
17728;DHT22;8984;49.268;12.302;2022-10-16T09:33:48;22.40;99.90
17728;DHT22;8984;49.268;12.302;2022-10-16T09:36:16;22.50;99.90
17728;DHT22;8984;49.268;12.302;2022-10-16T09:38:45;22.70;99.90
17728;DHT22;8984;49.268;12.302;2022-10-16T09:41:16;22.70;99.90
17728;DHT22;8984;49.268;12.302;2022-10-16T09:43:49;22.70;99.90
17728;DHT22;8984;49.268;12.302;2022-10-16T09:46:26;22.70;99.90
17728;DHT22;8984;49.268;12.302;2022-10-16T09:48:56;22.70;99.90
17728;DHT22;8984;49.268;12.302;2022-10-16T09:51:25;22.80;99.90
17728;DHT22;8984;49.268;12.302;2022-10-16T09:53:58;22.90;99.90
17728;DHT22;8984;49.268;12.302;2022-10-16T09:56:26;23.00;99.90
17728;DHT22;8984;49.268;12.302;2022-10-16T09:58:55;23.10;99.90
17728;DHT22;8984;49.268;12.302;2022-10-16T10:01:26;23.20;99.90
17728;DHT22;8984;49.268;12.302;2022-10-16T10:03:56;23.10;99.90
17728;DHT22;8984;49.268;12.302;2022-10-16T10:06:28;23.20;99.90
17728;DHT22;8984;49.268;12.302;2022-10-16T10:09:00;23.40;99.90
17728;DHT22;8984;49.268;12.302;2022-10-16T10:11:46;23.50;99.90
17728;DHT22;8984;49.268;12.302;2022-10-16T10:14:24;23.60;99.90
17728;DHT22;8984;49.268;12.302;2022-10-16T10:17:01;23.70;99.90
17728;DHT22;8984;49.268;12.302;2022-10-16T10:19:28;23.70;99.90
17728;DHT22;8984;49.268;12.302;2022-10-16T10:21:55;23.50;99.90
17728;DHT22;8984;49.268;12.302;2022-10-16T10:24:23;23.40;99.90
17728;DHT22;8984;49.268;12.302;2022-10-16T10:26:56;23.40;99.90
17728;DHT22;8984;49.268;12.302;2022-10-16T10:29:35;23.30;99.90
17728;DHT22;8984;49.268;12.302;2022-10-16T10:32:16;23.50;99.90
17728;DHT22;8984;49.268;12.302;2022-10-16T10:34:58;23.30;99.90
17728;DHT22;8984;49.268;12.302;2022-10-16T10:37:41;23.40;99.90
17728;DHT22;8984;49.268;12.302;2022-10-16T10:40:22;23.30;99.90
17728;DHT22;8984;49.268;12.302;2022-10-16T10:42:56;23.20;99.90
17728;DHT22;8984;49.268;12.302;2022-10-16T10:45:27;23.00;99.90
17728;DHT22;8984;49.268;12.302;2022-10-16T10:48:06;23.30;99.90
17728;DHT22;8984;49.268;12.302;2022-10-16T10:50:42;23.60;99.90
17728;DHT22;8984;49.268;12.302;2022-10-16T10:53:21;23.90;99.90
17728;DHT22;8984;49.268;12.302;2022-10-16T10:56:00;23.90;99.90
17728;DHT22;8984;49.268;12.302;2022-10-16T10:58:57;23.90;99.90
17728;DHT22;8984;49.268;12.302;2022-10-16T11:01:32;23.90;99.90
17728;DHT22;8984;49.268;12.302;2022-10-16T11:07:02;24.20;99.90
17728;DHT22;8984;49.268;12.302;2022-10-16T11:09:34;24.10;99.90
17728;DHT22;8984;49.268;12.302;2022-10-16T11:12:09;24.10;99.90
17728;DHT22;8984;49.268;12.302;2022-10-16T11:14:41;23.90;99.90
17728;DHT22;8984;49.268;12.302;2022-10-16T11:17:13;24.00;99.90
17728;DHT22;8984;49.268;12.302;2022-10-16T11:19:45;24.00;99.90
17728;DHT22;8984;49.268;12.302;2022-10-16T11:22:17;23.90;99.90
17728;DHT22;8984;49.268;12.302;2022-10-16T11:24:48;23.80;99.90
17728;DHT22;8984;49.268;12.302;2022-10-16T11:27:20;23.70;99.90
17728;DHT22;8984;49.268;12.302;2022-10-16T11:29:52;23.70;99.90
17728;DHT22;8984;49.268;12.302;2022-10-16T11:32:24;23.60;99.90
17728;DHT22;8984;49.268;12.302;2022-10-16T11:34:57;23.60;99.90
17728;DHT22;8984;49.268;12.302;2022-10-16T11:37:30;23.50;99.90
17728;DHT22;8984;49.268;12.302;2022-10-16T11:40:05;23.40;99.90
17728;DHT22;8984;49.268;12.302;2022-10-16T11:42:43;23.40;99.90
17728;DHT22;8984;49.268;12.302;2022-10-16T11:45:24;23.30;99.90
17728;DHT22;8984;49.268;12.302;2022-10-16T11:47:58;23.40;99.90
17728;DHT22;8984;49.268;12.302;2022-10-16T11:50:31;23.30;99.90
17728;DHT22;8984;49.268;12.302;2022-10-16T11:53:03;23.30;99.90
17728;DHT22;8984;49.268;12.302;2022-10-16T11:55:34;23.40;99.90
17728;DHT22;8984;49.268;12.302;2022-10-16T11:58:05;23.30;99.90
17728;DHT22;8984;49.268;12.302;2022-10-16T12:00:37;23.30;99.90
17728;DHT22;8984;49.268;12.302;2022-10-16T12:03:12;23.40;99.90
17728;DHT22;8984;49.268;12.302;2022-10-16T12:06:04;23.50;99.90
17728;DHT22;8984;49.268;12.302;2022-10-16T12:08:34;23.60;99.90
17728;DHT22;8984;49.268;12.302;2022-10-16T12:11:09;23.70;99.90
17728;DHT22;8984;49.268;12.302;2022-10-16T12:13:39;23.80;99.90
17728;DHT22;8984;49.268;12.302;2022-10-16T12:16:20;23.90;99.90
17728;DHT22;8984;49.268;12.302;2022-10-16T12:18:48;24.10;99.90
17728;DHT22;8984;49.268;12.302;2022-10-16T12:21:16;24.10;99.90
17728;DHT22;8984;49.268;12.302;2022-10-16T12:23:49;24.10;99.90
17728;DHT22;8984;49.268;12.302;2022-10-16T12:26:24;24.20;99.90
17728;DHT22;8984;49.268;12.302;2022-10-16T12:28:53;24.10;99.90
17728;DHT22;8984;49.268;12.302;2022-10-16T12:31:21;24.20;99.90
17728;DHT22;8984;49.268;12.302;2022-10-16T12:33:58;24.30;99.90
17728;DHT22;8984;49.268;12.302;2022-10-16T12:36:30;24.40;99.90
17728;DHT22;8984;49.268;12.302;2022-10-16T12:38:58;24.20;99.90
17728;DHT22;8984;49.268;12.302;2022-10-16T12:41:27;24.10;99.90
17728;DHT22;8984;49.268;12.302;2022-10-16T12:43:57;24.20;99.90
17728;DHT22;8984;49.268;12.302;2022-10-16T12:46:39;24.20;99.90
17728;DHT22;8984;49.268;12.302;2022-10-16T12:49:22;24.10;99.90
17728;DHT22;8984;49.268;12.302;2022-10-16T12:51:52;24.30;99.90
17728;DHT22;8984;49.268;12.302;2022-10-16T12:54:22;24.30;99.90
17728;DHT22;8984;49.268;12.302;2022-10-16T12:57:23;24.20;99.90
17728;DHT22;8984;49.268;12.302;2022-10-16T12:59:59;24.40;99.90
17728;DHT22;8984;49.268;12.302;2022-10-16T13:02:48;24.10;99.90
17728;DHT22;8984;49.268;12.302;2022-10-16T13:05:31;24.30;99.90
17728;DHT22;8984;49.268;12.302;2022-10-16T13:08:11;24.50;99.90
17728;DHT22;8984;49.268;12.302;2022-10-16T13:10:52;24.50;99.90
17728;DHT22;8984;49.268;12.302;2022-10-16T13:13:37;24.50;99.90
17728;DHT22;8984;49.268;12.302;2022-10-16T13:16:14;24.60;99.90
17728;DHT22;8984;49.268;12.302;2022-10-16T13:18:55;24.60;99.90
17728;DHT22;8984;49.268;12.302;2022-10-16T13:21:42;24.50;99.90
17728;DHT22;8984;49.268;12.302;2022-10-16T13:24:19;24.50;99.90
17728;DHT22;8984;49.268;12.302;2022-10-16T13:26:55;24.40;99.90
17728;DHT22;8984;49.268;12.302;2022-10-16T13:29:23;24.30;99.90
17728;DHT22;8984;49.268;12.302;2022-10-16T13:31:51;24.40;99.90
17728;DHT22;8984;49.268;12.302;2022-10-16T13:34:21;24.30;99.90
17728;DHT22;8984;49.268;12.302;2022-10-16T13:36:50;24.40;99.90
17728;DHT22;8984;49.268;12.302;2022-10-16T13:39:22;24.30;99.90
17728;DHT22;8984;49.268;12.302;2022-10-16T13:42:01;24.50;99.90
17728;DHT22;8984;49.268;12.302;2022-10-16T13:44:30;24.60;99.90
17728;DHT22;8984;49.268;12.302;2022-10-16T13:47:01;24.50;99.90
17728;DHT22;8984;49.268;12.302;2022-10-16T13:49:28;24.50;99.90
17728;DHT22;8984;49.268;12.302;2022-10-16T13:51:56;24.30;99.90
17728;DHT22;8984;49.268;12.302;2022-10-16T13:54:24;24.30;99.90
17728;DHT22;8984;49.268;12.302;2022-10-16T13:56:52;24.30;99.90
17728;DHT22;8984;49.268;12.302;2022-10-16T13:59:24;24.40;99.90
17728;DHT22;8984;49.268;12.302;2022-10-16T14:01:54;24.50;99.90
17728;DHT22;8984;49.268;12.302;2022-10-16T14:04:31;24.30;99.90
17728;DHT22;8984;49.268;12.302;2022-10-16T14:06:58;24.60;99.90
17728;DHT22;8984;49.268;12.302;2022-10-16T14:09:27;24.60;99.90
17728;DHT22;8984;49.268;12.302;2022-10-16T14:11:56;24.60;99.90
17728;DHT22;8984;49.268;12.302;2022-10-16T14:14:24;24.60;99.90
17728;DHT22;8984;49.268;12.302;2022-10-16T14:16:53;24.60;99.90
17728;DHT22;8984;49.268;12.302;2022-10-16T14:19:24;24.50;99.90
17728;DHT22;8984;49.268;12.302;2022-10-16T14:21:52;24.50;99.90
17728;DHT22;8984;49.268;12.302;2022-10-16T14:24:30;24.40;99.90
17728;DHT22;8984;49.268;12.302;2022-10-16T14:26:58;24.30;99.90
17728;DHT22;8984;49.268;12.302;2022-10-16T14:29:26;24.20;99.90
17728;DHT22;8984;49.268;12.302;2022-10-16T14:31:57;24.20;99.90
17728;DHT22;8984;49.268;12.302;2022-10-16T14:34:31;24.20;99.90
17728;DHT22;8984;49.268;12.302;2022-10-16T14:37:00;23.90;99.90
17728;DHT22;8984;49.268;12.302;2022-10-16T14:39:32;23.70;99.90
17728;DHT22;8984;49.268;12.302;2022-10-16T14:41:59;23.80;99.90
17728;DHT22;8984;49.268;12.302;2022-10-16T14:44:29;23.70;99.90
17728;DHT22;8984;49.268;12.302;2022-10-16T14:46:57;23.70;99.90
17728;DHT22;8984;49.268;12.302;2022-10-16T14:49:25;23.70;99.90
17728;DHT22;8984;49.268;12.302;2022-10-16T14:51:55;23.80;99.90
17728;DHT22;8984;49.268;12.302;2022-10-16T14:54:24;23.80;99.90
17728;DHT22;8984;49.268;12.302;2022-10-16T14:56:52;23.70;99.90
17728;DHT22;8984;49.268;12.302;2022-10-16T14:59:23;23.70;99.90
17728;DHT22;8984;49.268;12.302;2022-10-16T15:01:52;23.50;99.90
17728;DHT22;8984;49.268;12.302;2022-10-16T15:04:19;23.70;99.90
17728;DHT22;8984;49.268;12.302;2022-10-16T15:06:46;23.70;99.90
17728;DHT22;8984;49.268;12.302;2022-10-16T15:09:14;23.70;99.90
17728;DHT22;8984;49.268;12.302;2022-10-16T15:11:41;23.60;99.90
17728;DHT22;8984;49.268;12.302;2022-10-16T15:14:10;23.70;99.90
17728;DHT22;8984;49.268;12.302;2022-10-16T15:16:37;23.60;99.90
17728;DHT22;8984;49.268;12.302;2022-10-16T15:19:04;23.60;99.90
17728;DHT22;8984;49.268;12.302;2022-10-16T15:21:32;23.60;99.90
17728;DHT22;8984;49.268;12.302;2022-10-16T15:24:00;23.60;99.90
17728;DHT22;8984;49.268;12.302;2022-10-16T15:26:29;23.60;99.90
17728;DHT22;8984;49.268;12.302;2022-10-16T15:28:56;23.60;99.90
17728;DHT22;8984;49.268;12.302;2022-10-16T15:31:23;23.50;99.90
17728;DHT22;8984;49.268;12.302;2022-10-16T15:33:51;23.40;99.90
17728;DHT22;8984;49.268;12.302;2022-10-16T15:36:25;23.40;99.90
17728;DHT22;8984;49.268;12.302;2022-10-16T15:38:52;23.40;99.90
17728;DHT22;8984;49.268;12.302;2022-10-16T15:41:19;23.30;99.90
17728;DHT22;8984;49.268;12.302;2022-10-16T15:43:49;23.30;99.90
17728;DHT22;8984;49.268;12.302;2022-10-16T15:46:18;23.20;99.90
17728;DHT22;8984;49.268;12.302;2022-10-16T15:48:45;23.10;99.90
17728;DHT22;8984;49.268;12.302;2022-10-16T15:51:12;23.10;99.90